New Madrid, Missouri
Current Conditions -  °F | °C
As of 1:35 PM on Friday 31 Oct 2014 (Local Time) from KUCY Reporting Station
Broken Clouds Broken Clouds  
Wind Chill: 50°   Ceiling: 5500
Heat Index: 50°   Visibility: 10mi
Dew Point: 34°   Wind: 17mph
Humidity: 54%   Direction: 350°N
Pressure: 30.12"   Gusts: NA
Location:  36.59°N, 89.53°W
Report Text: KUCY 311835Z AUTO 35015KT 10SM FEW034 SCT043 BKN055 10/01 A3012 RMK
Loading
Personal Weather Stations






























Interactive Weather Map
Tropical Storm Tracking
New forecast layout! Learn more

10-Day Weather Forecast

Advertisements
Track Severe Weather on mobile